Colorado Springs, CO

9:21 PM MDT on May 06, 2015 (GMT -0600)
Old North End | | Change Station
CLOSE
Current Station
Personal Weather Station
Location: Colorado Springs, CO
Elevation: 6086 ft
Nearby Weather Stations

Elev 6086 ft 38.85 °N, 104.82 °W | Updated 25 seconds ago

Mostly Cloudy
Mostly Cloudy
50.0 °F
Feels Like 50.0 °F
N
0.0
Wind Variable Wind from West
Gusts 0.0 mph

Today
High -- | Low -- °F
--% Chance of Precip.
Yesterday
High -- | Low -- °F
Precip. -- in
5:56 AM 7:56 PM
Waning Gibbous, 91% visible
Pressure 29.72 in
Visibility 10.0 miles
Clouds Few 7000 ft
Scattered Clouds 12000 ft
Scattered Clouds 18000 ft
Mostly Cloudy 23000 ft
Dew Point 50 °F
Humidity 99%
Rainfall 0.11 in
Snow Depth Not available.
UV 0 out of 12
Pollen 7.10 out of 12
Air Quality Not available.
Flu Activity Sporadic
METAR KCOS 070254Z 35004KT 10SM FEW070 SCT120 SCT180 BKN230 09/08 A2981 RMK AO2 SLP062 T00940078 53013

More Conditions Fewer Conditions

Pressure 29.72 in
Visibility 10.0 miles
Clouds Few 7000 ft
Scattered Clouds 12000 ft
Scattered Clouds 18000 ft
Mostly Cloudy 23000 ft
Dew Point 50 °F
Humidity 99%
Rainfall 0.11 in
Snow Depth Not available.
UV 0 out of 12
Pollen 7.10 out of 12
Air Quality Not available.
Flu Activity Sporadic
METAR KCOS 070254Z 35004KT 10SM FEW070 SCT120 SCT180 BKN230 09/08 A2981 RMK AO2 SLP062 T00940078 53013

More Conditions Fewer Conditions

10-Day Weather Forecast

Almanac

Astronomy

May. 06, 2015 Rise Set
Actual Time
Civil Twilight
Nautical Twilight
Astronomical Twilight
Moon
Length of Visible Light
Length of Day
Tomorrow will be .
, % of the Moon is Illuminated

Today's Extremes

State Highs State Lows

Community

WunderPhotos

Upload Photos

1,819,101 photos uploaded!

WunderBlogs® & News

Nearby

Air Quality

  Air Quality AQ Index Pollutant
Not available.

Snow Depth

Station Depth Elevation

Earthquake Activity

City Distance Mag. Time & Date
Minimum magnitude displayed is 2.5.

Coastal Water Temperatures

Place Temperature

Stations

Nearby Weather Stations

Station Location Temp. Windchill Dew Point Humidity Wind Precip. Elev Updated Type